Time,TemperatureF,DewpointF,PressureIn,WindDirection,WindDirectionDegrees,WindSpeedMPH,WindSpeedGustMPH,Humidity,HourlyPrecipIn,Conditions,Clouds,dailyrainin,SoftwareType,DateUTC
2013-11-29 00:03:00,26.4,23.5,30.53,SSE,163,1.0,2.0,89,0.00,,,0.00,meteohub,2013-11-29 08:03:00,
2013-11-29 00:08:00,26.2,23.4,30.53,SSE,151,1.0,2.0,89,0.00,,,0.00,meteohub,2013-11-29 08:08:00,
2013-11-29 00:13:00,26.2,23.4,30.53,SSE,155,2.0,2.0,89,0.00,,,0.00,meteohub,2013-11-29 08:13:00,
2013-11-29 00:18:00,26.2,23.4,30.53,South,191,0.0,2.0,89,0.00,,,0.00,meteohub,2013-11-29 08:18:00,
2013-11-29 00:23:00,26.2,23.4,30.53,South,169,1.0,2.0,89,0.00,,,0.00,meteohub,2013-11-29 08:23:00,
2013-11-29 00:28:00,26.2,23.4,30.53,SSE,156,2.0,2.0,89,0.00,,,0.00,meteohub,2013-11-29 08:28:00,
2013-11-29 00:33:00,26.1,23.2,30.53,SSE,168,2.0,2.0,89,0.00,,,0.00,meteohub,2013-11-29 08:33:00,
2013-11-29 00:38:00,26.2,23.7,30.53,SSE,161,2.0,3.0,90,0.00,,,0.00,meteohub,2013-11-29 08:38:00,
2013-11-29 00:43:00,26.2,23.4,30.53,SSE,167,2.0,3.0,89,0.00,,,0.00,meteohub,2013-11-29 08:43:00,
2013-11-29 00:48:00,26.4,23.5,30.53,ESE,119,2.0,3.0,89,0.00,,,0.00,meteohub,2013-11-29 08:48:00,
2013-11-29 00:53:00,26.4,23.5,30.53,SSE,149,1.0,3.0,89,0.00,,,0.00,meteohub,2013-11-29 08:53:00,
2013-11-29 00:58:00,26.4,23.5,30.53,South,190,2.0,3.0,89,0.00,,,0.00,meteohub,2013-11-29 08:58:00,
2013-11-29 01:03:00,26.2,23.4,30.54,SE,145,2.0,3.0,89,0.00,,,0.00,meteohub,2013-11-29 09:03:00,
2013-11-29 01:08:00,26.2,23.4,30.54,SSE,163,1.0,3.0,89,0.00,,,0.00,meteohub,2013-11-29 09:08:00,
2013-11-29 01:13:00,26.1,23.2,30.54,South,172,1.0,2.0,89,0.00,,,0.00,meteohub,2013-11-29 09:13:00,
2013-11-29 01:18:00,25.9,23.0,30.54,SE,138,2.0,2.0,89,0.00,,,0.00,meteohub,2013-11-29 09:18:00,
2013-11-29 01:23:00,25.9,23.4,30.54,South,185,1.0,2.0,90,0.00,,,0.00,meteohub,2013-11-29 09:23:00,
2013-11-29 01:28:00,25.7,23.2,30.54,SSE,156,1.0,3.0,90,0.00,,,0.00,meteohub,2013-11-29 09:28:00,
2013-11-29 01:33:00,25.5,23.0,30.54,SSE,159,2.0,3.0,90,0.00,,,0.00,meteohub,2013-11-29 09:33:00,
2013-11-29 01:38:00,25.5,23.0,30.55,SSE,160,0.0,3.0,90,0.00,,,0.00,meteohub,2013-11-29 09:38:00,
2013-11-29 01:43:00,25.5,23.0,30.55,SSE,159,1.0,3.0,90,0.00,,,0.00,meteohub,2013-11-29 09:43:00,
2013-11-29 01:48:00,25.5,23.0,30.56,SSE,151,1.0,3.0,90,0.00,,,0.00,meteohub,2013-11-29 09:48:00,
2013-11-29 01:53:00,25.5,23.0,30.56,SSE,159,0.0,2.0,90,0.00,,,0.00,meteohub,2013-11-29 09:53:00,
2013-11-29 01:58:00,25.5,23.0,30.56,South,191,0.0,2.0,90,0.00,,,0.00,meteohub,2013-11-29 09:58:00,
2013-11-29 02:03:00,25.5,23.0,30.56,SSE,165,1.0,2.0,90,0.00,,,0.00,meteohub,2013-11-29 10:03:00,
2013-11-29 02:08:00,25.5,23.0,30.56,SSE,153,2.0,2.0,90,0.00,,,0.00,meteohub,2013-11-29 10:08:00,
2013-11-29 02:14:00,25.3,22.8,30.56,SSE,148,2.0,2.0,90,0.00,,,0.00,meteohub,2013-11-29 10:14:00,
2013-11-29 02:19:00,25.3,22.8,30.56,South,169,1.0,2.0,90,0.00,,,0.00,meteohub,2013-11-29 10:19:00,
2013-11-29 02:24:00,25.3,22.8,30.56,South,173,2.0,2.0,90,0.00,,,0.00,meteohub,2013-11-29 10:24:00,
2013-11-29 02:29:00,25.5,23.0,30.56,South,182,2.0,2.0,90,0.00,,,0.00,meteohub,2013-11-29 10:29:00,
2013-11-29 02:34:00,25.5,23.0,30.56,South,191,0.0,3.0,90,0.00,,,0.00,meteohub,2013-11-29 10:34:00,
2013-11-29 02:39:00,25.7,23.2,30.57,SSE,153,1.0,3.0,90,0.00,,,0.00,meteohub,2013-11-29 10:39:00,
2013-11-29 02:44:00,25.7,23.0,30.57,SE,141,2.0,3.0,89,0.00,,,0.00,meteohub,2013-11-29 10:44:00,
2013-11-29 02:50:00,25.7,23.0,30.57,South,191,2.0,2.0,89,0.00,,,0.00,meteohub,2013-11-29 10:50:00,
2013-11-29 02:55:00,25.5,22.8,30.57,South,173,2.0,2.0,89,0.00,,,0.00,meteohub,2013-11-29 10:55:00,
2013-11-29 03:00:00,25.5,22.8,30.57,SSE,147,1.0,2.0,89,0.00,,,0.00,meteohub,2013-11-29 11:00:00,
2013-11-29 03:05:00,25.5,22.8,30.56,SE,146,0.0,2.0,89,0.00,,,0.00,meteohub,2013-11-29 11:05:00,
2013-11-29 03:10:00,25.5,23.0,30.56,SSW,205,2.0,2.0,90,0.00,,,0.00,meteohub,2013-11-29 11:10:00,
2013-11-29 03:15:00,25.3,22.6,30.56,SE,141,2.0,2.0,89,0.00,,,0.00,meteohub,2013-11-29 11:15:00,
2013-11-29 03:20:00,23.5,20.8,30.57,South,171,1.0,2.0,89,0.00,,,0.00,meteohub,2013-11-29 11:20:00,
2013-11-29 03:25:00,23.5,20.8,30.56,South,171,1.0,2.0,89,0.00,,,0.00,meteohub,2013-11-29 11:25:00,
2013-11-29 03:30:00,23.5,20.8,30.56,North,-999,-999.0,2.0,89,0.00,,,0.00,meteohub,2013-11-29 11:30:00,
2013-11-29 08:16:00,25.5,22.8,30.59,North,-999,-999.0,-999.0,89,-99.99,,,0.00,meteohub,2013-11-29 16:16:00,
2013-11-29 08:21:00,25.9,23.0,30.59,North,-999,-999.0,-999.0,89,0.00,,,0.00,meteohub,2013-11-29 16:21:00,
2013-11-29 08:26:00,26.6,23.7,30.59,SSE,152,2.0,2.0,89,0.00,,,0.00,meteohub,2013-11-29 16:26:00,
2013-11-29 08:31:00,27.0,23.9,30.59,SSE,155,1.0,2.0,88,0.00,,,0.00,meteohub,2013-11-29 16:31:00,
2013-11-29 08:36:00,27.3,23.9,30.60,South,173,0.0,2.0,87,0.00,,,0.00,meteohub,2013-11-29 16:36:00,
2013-11-29 08:41:00,27.9,24.4,30.60,SE,141,0.0,2.0,87,0.00,,,0.00,meteohub,2013-11-29 16:41:00,
2013-11-29 08:46:00,28.2,24.6,30.60,SSE,156,0.0,2.0,86,0.00,,,0.00,meteohub,2013-11-29 16:46:00,
2013-11-29 08:51:00,28.6,25.0,30.60,SSE,148,0.0,2.0,86,0.00,,,0.00,meteohub,2013-11-29 16:51:00,
2013-11-29 08:56:00,28.9,25.3,30.61,SSE,148,0.0,1.0,86,0.00,,,0.00,meteohub,2013-11-29 16:56:00,
2013-11-29 09:01:00,29.8,25.9,30.61,SSE,148,0.0,0.0,85,0.00,,,0.00,meteohub,2013-11-29 17:01:00,
2013-11-29 09:06:00,30.6,26.6,30.61,SSE,148,0.0,0.0,85,0.00,,,0.00,meteohub,2013-11-29 17:06:00,
2013-11-29 09:11:00,31.3,26.8,30.61,SE,142,0.0,0.0,83,0.00,,,0.00,meteohub,2013-11-29 17:11:00,
2013-11-29 09:16:00,32.0,27.5,30.61,South,169,0.0,0.0,83,0.00,,,0.00,meteohub,2013-11-29 17:16:00,
2013-11-29 09:21:00,32.9,28.0,30.61,SSW,192,0.0,2.0,82,0.00,,,0.00,meteohub,2013-11-29 17:21:00,
2013-11-29 09:26:00,33.8,28.2,30.61,SSE,165,1.0,2.0,80,0.00,,,0.00,meteohub,2013-11-29 17:26:00,
2013-11-29 09:31:00,34.5,28.8,30.61,SSE,163,0.0,2.0,79,0.00,,,0.00,meteohub,2013-11-29 17:31:00,
2013-11-29 09:36:00,35.4,28.9,30.61,South,174,0.0,2.0,77,0.00,,,0.00,meteohub,2013-11-29 17:36:00,
2013-11-29 09:41:00,36.5,29.3,30.62,South,176,0.0,2.0,75,0.00,,,0.00,meteohub,2013-11-29 17:41:00,
2013-11-29 09:46:00,37.8,30.2,30.61,South,177,0.0,2.0,74,0.00,,,0.00,meteohub,2013-11-29 17:46:00,
2013-11-29 09:51:00,38.7,30.0,30.62,South,176,0.0,2.0,71,0.00,,,0.00,meteohub,2013-11-29 17:51:00,
2013-11-29 09:56:00,39.7,30.7,30.62,South,176,0.0,0.0,70,0.00,,,0.00,meteohub,2013-11-29 17:56:00,
2013-11-29 10:01:00,41.0,30.6,30.62,South,176,0.0,0.0,66,0.00,,,0.00,meteohub,2013-11-29 18:01:00,
2013-11-29 10:06:00,41.2,30.7,30.62,South,176,0.0,0.0,66,0.00,,,0.00,meteohub,2013-11-29 18:06:00,
2013-11-29 10:11:00,40.8,30.7,30.62,South,178,0.0,0.0,67,0.00,,,0.00,meteohub,2013-11-29 18:11:00,
2013-11-29 10:16:00,40.1,31.1,30.62,South,180,0.0,0.0,70,0.00,,,0.00,meteohub,2013-11-29 18:16:00,
2013-11-29 10:21:00,40.1,31.8,30.62,South,180,0.0,0.0,72,0.00,,,0.00,meteohub,2013-11-29 18:21:00,
2013-11-29 10:26:00,40.6,31.6,30.61,South,180,0.0,0.0,70,0.00,,,0.00,meteohub,2013-11-29 18:26:00,
2013-11-29 10:31:00,40.5,31.8,30.61,WNW,284,1.0,1.0,71,0.00,,,0.00,meteohub,2013-11-29 18:31:00,
2013-11-29 10:36:00,39.9,31.3,30.62,NW,315,3.0,3.0,71,0.00,,,0.00,meteohub,2013-11-29 18:36:00,
2013-11-29 10:41:00,39.9,30.9,30.62,NW,317,2.0,4.0,70,0.00,,,0.00,meteohub,2013-11-29 18:41:00,
2013-11-29 10:46:00,39.9,31.6,30.62,NW,318,2.0,4.0,72,0.00,,,0.00,meteohub,2013-11-29 18:46:00,
2013-11-29 10:51:00,40.1,31.5,30.62,NW,317,1.0,4.0,71,0.00,,,0.00,meteohub,2013-11-29 18:51:00,
2013-11-29 10:56:00,40.3,32.0,30.61,NW,317,2.0,3.0,72,0.00,,,0.00,meteohub,2013-11-29 18:56:00,
2013-11-29 11:01:00,40.3,31.6,30.61,NW,311,2.0,3.0,71,0.00,,,0.00,meteohub,2013-11-29 19:01:00,
2013-11-29 11:06:00,40.5,31.8,30.61,NW,313,3.0,3.0,71,0.00,,,0.00,meteohub,2013-11-29 19:06:00,
2013-11-29 11:11:00,40.6,31.3,30.61,NW,315,1.0,3.0,69,0.00,,,0.00,meteohub,2013-11-29 19:11:00,
2013-11-29 11:16:00,40.8,31.5,30.61,NW,311,2.0,3.0,69,0.00,,,0.00,meteohub,2013-11-29 19:16:00,
2013-11-29 11:21:00,40.6,31.3,30.61,NW,314,4.0,4.0,69,0.00,,,0.00,meteohub,2013-11-29 19:21:00,
2013-11-29 11:26:00,40.6,31.3,30.61,NW,315,1.0,4.0,69,0.00,,,0.00,meteohub,2013-11-29 19:26:00,
2013-11-29 11:31:00,41.0,30.9,30.61,NW,315,5.0,5.0,67,0.00,,,0.00,meteohub,2013-11-29 19:31:00,
2013-11-29 11:36:00,41.5,31.5,30.61,NW,318,5.0,6.0,67,0.00,,,0.00,meteohub,2013-11-29 19:36:00,
2013-11-29 11:41:00,41.2,31.5,30.61,NW,313,2.0,6.0,68,0.00,,,0.00,meteohub,2013-11-29 19:41:00,
2013-11-29 11:46:00,41.2,31.5,30.61,NW,315,0.0,6.0,68,0.00,,,0.00,meteohub,2013-11-29 19:46:00,
2013-11-29 11:51:00,41.4,31.6,30.61,NW,317,3.0,5.0,68,0.00,,,0.00,meteohub,2013-11-29 19:51:00,
2013-11-29 11:56:00,41.4,31.3,30.61,NW,318,1.0,4.0,67,0.00,,,0.00,meteohub,2013-11-29 19:56:00,
2013-11-29 12:01:00,41.7,31.6,30.61,NW,317,0.0,3.0,67,0.00,,,0.00,meteohub,2013-11-29 20:01:00,
2013-11-29 12:06:00,42.3,32.5,30.61,NW,317,0.0,3.0,68,0.00,,,0.00,meteohub,2013-11-29 20:06:00,
2013-11-29 12:11:00,43.0,32.7,30.61,NW,316,0.0,3.0,67,0.00,,,0.00,meteohub,2013-11-29 20:11:00,
2013-11-29 12:16:00,43.5,32.5,30.59,NW,317,0.0,0.0,65,0.00,,,0.00,meteohub,2013-11-29 20:16:00,
2013-11-29 12:21:00,44.1,31.5,30.59,NW,317,0.0,0.0,61,0.00,,,0.00,meteohub,2013-11-29 20:21:00,
2013-11-29 12:26:00,44.1,31.8,30.59,NW,316,0.0,0.0,62,0.00,,,0.00,meteohub,2013-11-29 20:26:00,
2013-11-29 12:31:00,44.8,32.9,30.59,NW,317,0.0,0.0,63,0.00,,,0.00,meteohub,2013-11-29 20:31:00,
2013-11-29 12:36:00,45.1,32.9,30.58,NW,316,0.0,0.0,62,0.00,,,0.00,meteohub,2013-11-29 20:36:00,
2013-11-29 12:41:00,45.1,32.9,30.58,NW,321,0.0,0.0,62,0.00,,,0.00,meteohub,2013-11-29 20:41:00,
2013-11-29 12:46:00,44.1,33.1,30.58,NW,317,0.0,3.0,65,0.00,,,0.00,meteohub,2013-11-29 20:46:00,
2013-11-29 12:51:00,43.5,33.3,30.58,NW,307,0.0,3.0,67,0.00,,,0.00,meteohub,2013-11-29 20:51:00,
2013-11-29 12:56:00,43.5,33.3,30.57,NW,307,0.0,3.0,67,0.00,,,0.00,meteohub,2013-11-29 20:56:00,
2013-11-29 13:02:00,44.2,33.3,30.57,NW,304,0.0,3.0,65,0.00,,,0.00,meteohub,2013-11-29 21:02:00,
2013-11-29 13:07:00,45.1,33.3,30.57,WNW,300,0.0,0.0,63,0.00,,,0.00,meteohub,2013-11-29 21:07:00,
2013-11-29 13:12:00,46.0,32.9,30.57,WNW,300,0.0,0.0,60,0.00,,,0.00,meteohub,2013-11-29 21:12:00,
2013-11-29 13:17:00,46.2,33.1,30.57,WNW,300,0.0,0.0,60,0.00,,,0.00,meteohub,2013-11-29 21:17:00,
2013-11-29 13:22:00,46.6,33.4,30.56,WNW,300,0.0,0.0,60,0.00,,,0.00,meteohub,2013-11-29 21:22:00,
2013-11-29 13:27:00,46.6,33.1,30.56,WNW,300,0.0,0.0,59,0.00,,,0.00,meteohub,2013-11-29 21:27:00,
2013-11-29 13:32:00,46.9,32.9,30.56,WNW,300,0.0,0.0,58,0.00,,,0.00,meteohub,2013-11-29 21:32:00,
2013-11-29 13:37:00,47.1,32.7,30.56,WNW,300,0.0,0.0,57,0.00,,,0.00,meteohub,2013-11-29 21:37:00,
2013-11-29 13:42:00,46.8,32.4,30.56,WNW,300,0.0,0.0,57,0.00,,,0.00,meteohub,2013-11-29 21:42:00,
2013-11-29 13:47:00,45.7,30.9,30.56,WNW,300,0.0,0.0,56,0.00,,,0.00,meteohub,2013-11-29 21:47:00,
2013-11-29 13:52:00,45.0,30.2,30.56,WNW,300,0.0,0.0,56,0.00,,,0.00,meteohub,2013-11-29 21:52:00,
2013-11-29 13:57:00,44.1,29.8,30.56,WNW,300,1.0,1.0,57,0.00,,,0.00,meteohub,2013-11-29 21:57:00,
2013-11-29 14:02:00,43.7,29.5,30.56,NW,304,0.0,1.0,57,0.00,,,0.00,meteohub,2013-11-29 22:02:00,
2013-11-29 14:07:00,43.5,29.7,30.56,NW,304,0.0,1.0,58,0.00,,,0.00,meteohub,2013-11-29 22:07:00,
2013-11-29 14:12:00,43.5,28.9,30.56,NNE,22,1.0,1.0,56,0.00,,,0.00,meteohub,2013-11-29 22:12:00,
2013-11-29 14:17:00,43.9,29.1,30.56,NE,38,2.0,2.0,56,0.00,,,0.00,meteohub,2013-11-29 22:17:00,
2013-11-29 14:22:00,44.1,29.8,30.56,NE,47,4.0,4.0,57,0.00,,,0.00,meteohub,2013-11-29 22:22:00,
2013-11-29 14:27:00,44.2,29.1,30.56,NNE,18,5.0,5.0,55,0.00,,,0.00,meteohub,2013-11-29 22:27:00,
2013-11-29 14:32:00,44.2,27.7,30.56,NNW,327,3.0,7.0,52,0.00,,,0.00,meteohub,2013-11-29 22:32:00,
2013-11-29 14:37:00,44.4,30.2,30.56,NW,313,7.0,7.0,57,0.00,,,0.00,meteohub,2013-11-29 22:37:00,
2013-11-29 14:42:00,44.2,32.4,30.56,NW,315,8.0,9.0,63,0.00,,,0.00,meteohub,2013-11-29 22:42:00,
2013-11-29 14:47:00,44.1,33.4,30.56,NW,320,9.0,11.0,66,0.00,,,0.00,meteohub,2013-11-29 22:47:00,
2013-11-29 14:52:00,44.1,31.8,30.56,NW,323,3.0,11.0,62,0.00,,,0.00,meteohub,2013-11-29 22:52:00,
2013-11-29 14:57:00,43.9,30.6,30.56,NW,315,6.0,11.0,59,0.00,,,0.00,meteohub,2013-11-29 22:57:00,
2013-11-29 15:02:00,43.9,30.6,30.56,NW,323,6.0,10.0,59,0.00,,,0.00,meteohub,2013-11-29 23:02:00,
2013-11-29 15:07:00,43.9,30.9,30.56,WNW,297,5.0,10.0,60,0.00,,,0.00,meteohub,2013-11-29 23:07:00,
2013-11-29 15:12:00,44.1,31.8,30.56,WNW,302,0.0,10.0,62,0.00,,,0.00,meteohub,2013-11-29 23:12:00,
2013-11-29 15:17:00,43.7,32.0,30.56,WNW,302,0.0,10.0,63,0.00,,,0.00,meteohub,2013-11-29 23:17:00,
2013-11-29 15:22:00,43.3,30.7,30.56,SSW,209,0.0,7.0,61,0.00,,,0.00,meteohub,2013-11-29 23:22:00,
2013-11-29 15:27:00,43.0,30.9,30.56,SSW,209,0.0,7.0,62,0.00,,,0.00,meteohub,2013-11-29 23:27:00,
2013-11-29 15:32:00,42.6,30.6,30.56,SSW,209,0.0,1.0,62,0.00,,,0.00,meteohub,2013-11-29 23:32:00,
2013-11-29 15:37:00,42.6,30.2,30.56,SSW,209,0.0,1.0,61,0.00,,,0.00,meteohub,2013-11-29 23:37:00,
2013-11-29 15:42:00,42.4,28.8,30.56,SSW,209,0.0,0.0,58,0.00,,,0.00,meteohub,2013-11-29 23:42:00,
2013-11-29 15:47:00,42.3,28.6,30.56,SSW,207,0.0,0.0,58,0.00,,,0.00,meteohub,2013-11-29 23:47:00,
2013-11-29 15:52:00,42.3,28.6,30.56,SSW,207,0.0,0.0,58,0.00,,,0.00,meteohub,2013-11-29 23:52:00,
2013-11-29 15:57:00,41.9,29.5,30.56,SSW,205,0.0,0.0,61,0.00,,,0.00,meteohub,2013-11-29 23:57:00,
2013-11-29 16:02:00,41.7,29.3,30.56,South,178,0.0,0.0,61,0.00,,,0.00,meteohub,2013-11-30 00:02:00,
2013-11-29 16:07:00,41.5,28.8,30.56,SSW,198,0.0,0.0,60,0.00,,,0.00,meteohub,2013-11-30 00:07:00,
2013-11-29 16:12:00,41.4,28.6,30.56,SE,130,0.0,0.0,60,0.00,,,0.00,meteohub,2013-11-30 00:12:00,
2013-11-29 16:17:00,41.4,29.7,30.56,SSW,209,0.0,3.0,63,0.00,,,0.00,meteohub,2013-11-30 00:17:00,
2013-11-29 16:22:00,41.0,29.3,30.56,SSW,196,1.0,3.0,63,0.00,,,0.00,meteohub,2013-11-30 00:22:00,
2013-11-29 16:27:00,40.6,29.8,30.57,SSE,168,0.0,3.0,65,0.00,,,0.00,meteohub,2013-11-30 00:27:00,
2013-11-29 16:32:00,40.5,30.0,30.57,SSE,161,0.0,2.0,66,0.00,,,0.00,meteohub,2013-11-30 00:32:00,
2013-11-29 16:37:00,40.3,29.8,30.57,SSE,164,0.0,3.0,66,0.00,,,0.00,meteohub,2013-11-30 00:37:00,
2013-11-29 16:42:00,40.1,29.7,30.57,SSE,157,0.0,3.0,66,0.00,,,0.00,meteohub,2013-11-30 00:42:00,
2013-11-29 16:47:00,39.7,29.3,30.57,SSE,155,0.0,3.0,66,0.00,,,0.00,meteohub,2013-11-30 00:47:00,
2013-11-29 16:52:00,39.4,28.9,30.58,SSE,150,0.0,2.0,66,0.00,,,0.00,meteohub,2013-11-30 00:52:00,
2013-11-29 16:57:00,39.0,28.6,30.58,South,185,1.0,2.0,66,0.00,,,0.00,meteohub,2013-11-30 00:57:00,
2013-11-29 17:02:00,38.7,28.6,30.58,SSE,167,0.0,2.0,67,0.00,,,0.00,meteohub,2013-11-30 01:02:00,
2013-11-29 17:07:00,38.1,28.6,30.58,SSE,156,1.0,2.0,68,0.00,,,0.00,meteohub,2013-11-30 01:07:00,
2013-11-29 17:12:00,37.8,28.6,30.58,SSE,161,0.0,2.0,69,0.00,,,0.00,meteohub,2013-11-30 01:12:00,
2013-11-29 17:17:00,37.6,28.4,30.59,SSE,159,0.0,2.0,69,0.00,,,0.00,meteohub,2013-11-30 01:17:00,
2013-11-29 17:22:00,37.2,28.0,30.59,SSE,154,1.0,2.0,69,0.00,,,0.00,meteohub,2013-11-30 01:22:00,
2013-11-29 17:27:00,37.0,28.2,30.59,SSE,150,1.0,2.0,70,0.00,,,0.00,meteohub,2013-11-30 01:27:00,
2013-11-29 17:32:00,36.7,27.9,30.60,SSE,160,0.0,2.0,70,0.00,,,0.00,meteohub,2013-11-30 01:32:00,
2013-11-29 17:37:00,36.3,27.9,30.60,SSW,195,0.0,2.0,71,0.00,,,0.00,meteohub,2013-11-30 01:37:00,
2013-11-29 17:42:00,36.0,27.9,30.60,SSE,150,0.0,2.0,72,0.00,,,0.00,meteohub,2013-11-30 01:42:00,
2013-11-29 17:47:00,35.4,27.3,30.60,South,180,0.0,1.0,72,0.00,,,0.00,meteohub,2013-11-30 01:47:00,
2013-11-29 17:52:00,35.2,27.5,30.61,SSE,167,0.0,1.0,73,0.00,,,0.00,meteohub,2013-11-30 01:52:00,
2013-11-29 17:57:00,34.9,27.1,30.61,SSE,161,0.0,1.0,73,0.00,,,0.00,meteohub,2013-11-30 01:57:00,
2013-11-29 18:02:00,34.5,26.8,30.61,ESE,114,0.0,1.0,73,0.00,,,0.00,meteohub,2013-11-30 02:02:00,
2013-11-29 18:07:00,34.3,27.0,30.61,SSE,159,0.0,2.0,74,0.00,,,0.00,meteohub,2013-11-30 02:07:00,
2013-11-29 18:12:00,34.0,27.0,30.62,SSE,163,1.0,2.0,75,0.00,,,0.00,meteohub,2013-11-30 02:12:00,
2013-11-29 18:17:00,33.4,26.4,30.62,SSE,150,0.0,2.0,75,0.00,,,0.00,meteohub,2013-11-30 02:17:00,
2013-11-29 18:22:00,33.3,26.6,30.62,South,171,0.0,1.0,76,0.00,,,0.00,meteohub,2013-11-30 02:22:00,
2013-11-29 18:27:00,32.9,26.2,30.62,SSE,167,1.0,1.0,76,0.00,,,0.00,meteohub,2013-11-30 02:27:00,
2013-11-29 18:32:00,32.5,26.1,30.62,South,181,1.0,2.0,77,0.00,,,0.00,meteohub,2013-11-30 02:32:00,
2013-11-29 18:37:00,32.4,25.9,30.63,SSE,150,1.0,2.0,77,0.00,,,0.00,meteohub,2013-11-30 02:37:00,
2013-11-29 18:42:00,32.0,25.7,30.63,SSE,156,1.0,2.0,77,0.00,,,0.00,meteohub,2013-11-30 02:42:00,
2013-11-29 18:47:00,31.6,25.5,30.63,SSE,156,1.0,2.0,78,0.00,,,0.00,meteohub,2013-11-30 02:47:00,
2013-11-29 18:52:00,31.5,25.3,30.63,SSE,157,0.0,2.0,78,0.00,,,0.00,meteohub,2013-11-30 02:52:00,
2013-11-29 18:57:00,31.3,25.2,30.64,SSE,147,1.0,2.0,78,0.00,,,0.00,meteohub,2013-11-30 02:57:00,
2013-11-29 19:02:00,30.9,25.2,30.64,SSE,163,1.0,1.0,79,0.00,,,0.00,meteohub,2013-11-30 03:02:00,
2013-11-29 19:07:00,30.9,25.2,30.64,SSE,149,0.0,1.0,79,0.00,,,0.00,meteohub,2013-11-30 03:07:00,
2013-11-29 19:12:00,30.6,24.8,30.64,SSE,166,1.0,1.0,79,0.00,,,0.00,meteohub,2013-11-30 03:12:00,
2013-11-29 19:17:00,30.4,24.6,30.65,SSE,168,1.0,2.0,79,0.00,,,0.00,meteohub,2013-11-30 03:17:00,
2013-11-29 19:22:00,30.2,24.8,30.65,South,174,1.0,2.0,80,0.00,,,0.00,meteohub,2013-11-30 03:22:00,
2013-11-29 19:27:00,30.0,24.6,30.65,SE,135,1.0,2.0,80,0.00,,,0.00,meteohub,2013-11-30 03:27:00,
2013-11-29 19:32:00,30.0,24.6,30.66,SSE,150,2.0,3.0,80,0.00,,,0.00,meteohub,2013-11-30 03:32:00,
2013-11-29 19:37:00,30.0,24.3,30.66,South,183,1.0,3.0,79,0.00,,,0.00,meteohub,2013-11-30 03:37:00,
2013-11-29 19:42:00,30.0,24.3,30.66,SSW,194,0.0,3.0,79,0.00,,,0.00,meteohub,2013-11-30 03:42:00,
2013-11-29 19:47:00,29.8,24.1,30.66,South,182,1.0,2.0,79,0.00,,,0.00,meteohub,2013-11-30 03:47:00,
2013-11-29 19:52:00,29.8,24.1,30.66,SSW,202,0.0,2.0,79,0.00,,,0.00,meteohub,2013-11-30 03:52:00,
2013-11-29 19:57:00,29.7,24.3,30.66,SSW,192,1.0,2.0,80,0.00,,,0.00,meteohub,2013-11-30 03:57:00,
2013-11-29 20:02:00,29.5,24.1,30.66,SE,134,0.0,2.0,80,0.00,,,0.00,meteohub,2013-11-30 04:02:00,
2013-11-29 20:07:00,29.3,23.9,30.66,SSE,150,0.0,2.0,80,0.00,,,0.00,meteohub,2013-11-30 04:07:00,
2013-11-29 20:12:00,28.9,23.9,30.66,SSE,163,0.0,2.0,81,0.00,,,0.00,meteohub,2013-11-30 04:12:00,
2013-11-29 20:17:00,28.8,23.7,30.67,SSE,164,0.0,1.0,81,0.00,,,0.00,meteohub,2013-11-30 04:17:00,
2013-11-29 20:22:00,28.8,23.7,30.67,SSE,149,0.0,1.0,81,0.00,,,0.00,meteohub,2013-11-30 04:22:00,
2013-11-29 20:27:00,28.6,23.5,30.67,SSE,150,1.0,1.0,81,0.00,,,0.00,meteohub,2013-11-30 04:27:00,
2013-11-29 20:32:00,28.4,23.4,30.67,South,171,0.0,1.0,81,0.00,,,0.00,meteohub,2013-11-30 04:32:00,
2013-11-29 20:37:00,28.2,23.4,30.67,South,171,1.0,2.0,82,0.00,,,0.00,meteohub,2013-11-30 04:37:00,
2013-11-29 20:42:00,28.2,23.4,30.67,SSE,162,1.0,2.0,82,0.00,,,0.00,meteohub,2013-11-30 04:42:00,
2013-11-29 20:47:00,28.2,23.4,30.67,SSE,164,0.0,2.0,82,0.00,,,0.00,meteohub,2013-11-30 04:47:00,
2013-11-29 20:52:00,28.2,23.2,30.67,SE,141,2.0,2.0,81,0.00,,,0.00,meteohub,2013-11-30 04:52:00,
2013-11-29 20:57:00,28.0,23.2,30.68,SE,145,1.0,2.0,82,0.00,,,0.00,meteohub,2013-11-30 04:57:00,
2013-11-29 21:01:00,28.0,23.2,30.68,SSE,153,1.0,2.0,82,0.00,,,0.00,meteohub,2013-11-30 05:01:00,
2013-11-29 21:02:00,28.0,23.2,30.68,South,179,1.0,2.0,82,0.00,,,0.00,meteohub,2013-11-30 05:02:00,
2013-11-29 21:08:00,27.9,23.0,30.68,SSE,155,1.0,2.0,82,0.00,,,0.00,meteohub,2013-11-30 05:08:00,
2013-11-29 21:13:00,27.7,22.8,30.68,SSE,159,1.0,2.0,82,0.00,,,0.00,meteohub,2013-11-30 05:13:00,
2013-11-29 21:18:00,27.5,22.8,30.68,SE,141,2.0,2.0,82,0.00,,,0.00,meteohub,2013-11-30 05:18:00,
2013-11-29 21:23:00,27.5,22.8,30.68,SSE,159,2.0,3.0,82,0.00,,,0.00,meteohub,2013-11-30 05:23:00,
2013-11-29 21:28:00,27.3,22.6,30.68,SSE,164,1.0,3.0,82,0.00,,,0.00,meteohub,2013-11-30 05:28:00,
2013-11-29 21:33:00,27.1,22.6,30.69,SSW,195,0.0,2.0,83,0.00,,,0.00,meteohub,2013-11-30 05:33:00,
2013-11-29 21:38:00,27.1,22.5,30.69,SE,126,1.0,2.0,82,0.00,,,0.00,meteohub,2013-11-30 05:38:00,
2013-11-29 21:43:00,27.1,22.6,30.69,SSE,156,1.0,3.0,83,0.00,,,0.00,meteohub,2013-11-30 05:43:00,
2013-11-29 21:48:00,27.0,22.5,30.69,South,169,2.0,3.0,83,0.00,,,0.00,meteohub,2013-11-30 05:48:00,
2013-11-29 21:53:00,27.0,22.5,30.69,SE,146,1.0,3.0,83,0.00,,,0.00,meteohub,2013-11-30 05:53:00,
2013-11-29 21:58:00,27.0,22.5,30.69,South,173,2.0,2.0,83,0.00,,,0.00,meteohub,2013-11-30 05:58:00,
2013-11-29 22:03:00,27.0,22.5,30.69,SSE,153,2.0,2.0,83,0.00,,,0.00,meteohub,2013-11-30 06:03:00,
2013-11-29 22:08:00,27.0,22.5,30.69,SSE,150,2.0,3.0,83,0.00,,,0.00,meteohub,2013-11-30 06:08:00,
2013-11-29 22:13:00,27.0,22.5,30.69,SSE,149,2.0,3.0,83,0.00,,,0.00,meteohub,2013-11-30 06:13:00,
2013-11-29 22:18:00,27.0,22.5,30.69,SSE,164,2.0,3.0,83,0.00,,,0.00,meteohub,2013-11-30 06:18:00,
2013-11-29 22:23:00,26.8,22.3,30.69,SSE,153,2.0,3.0,83,0.00,,,0.00,meteohub,2013-11-30 06:23:00,
2013-11-29 22:28:00,26.8,22.3,30.69,SSE,159,2.0,3.0,83,0.00,,,0.00,meteohub,2013-11-30 06:28:00,
2013-11-29 22:33:00,26.6,22.5,30.69,South,169,2.0,3.0,84,0.00,,,0.00,meteohub,2013-11-30 06:33:00,
2013-11-29 22:38:00,26.6,22.5,30.69,South,169,2.0,3.0,84,0.00,,,0.00,meteohub,2013-11-30 06:38:00,
2013-11-29 22:43:00,26.6,22.5,30.69,SSE,150,2.0,3.0,84,0.00,,,0.00,meteohub,2013-11-30 06:43:00,
2013-11-29 22:48:00,26.4,22.3,30.69,SSE,167,1.0,3.0,84,0.00,,,0.00,meteohub,2013-11-30 06:48:00,
2013-11-29 22:53:00,26.4,22.3,30.69,SSW,210,2.0,3.0,84,0.00,,,0.00,meteohub,2013-11-30 06:53:00,
2013-11-29 22:58:00,26.4,22.3,30.69,SSE,165,1.0,3.0,84,0.00,,,0.00,meteohub,2013-11-30 06:58:00,
2013-11-29 23:03:00,26.4,22.3,30.69,SSE,164,1.0,3.0,84,0.00,,,0.00,meteohub,2013-11-30 07:03:00,
2013-11-29 23:08:00,26.4,22.3,30.69,SE,142,2.0,2.0,84,0.00,,,0.00,meteohub,2013-11-30 07:08:00,
2013-11-29 23:13:00,26.2,22.1,30.69,SSE,160,1.0,2.0,84,0.00,,,0.00,meteohub,2013-11-30 07:13:00,
2013-11-29 23:18:00,26.2,22.1,30.69,South,178,1.0,3.0,84,0.00,,,0.00,meteohub,2013-11-30 07:18:00,
2013-11-29 23:23:00,26.1,22.1,30.69,South,175,2.0,3.0,85,0.00,,,0.00,meteohub,2013-11-30 07:23:00,
2013-11-29 23:28:00,25.9,21.9,30.69,South,180,2.0,2.0,85,0.00,,,0.00,meteohub,2013-11-30 07:28:00,
2013-11-29 23:33:00,25.9,21.9,30.69,South,186,2.0,2.0,85,0.00,,,0.00,meteohub,2013-11-30 07:33:00,
2013-11-29 23:38:00,25.9,21.9,30.69,SSE,159,1.0,3.0,85,0.00,,,0.00,meteohub,2013-11-30 07:38:00,
2013-11-29 23:43:00,25.9,21.9,30.69,SSE,167,1.0,4.0,85,0.00,,,0.00,meteohub,2013-11-30 07:43:00,
2013-11-29 23:48:00,25.9,21.9,30.69,South,178,1.0,4.0,85,0.00,,,0.00,meteohub,2013-11-30 07:48:00,
2013-11-29 23:53:00,25.9,21.9,30.69,South,169,1.0,4.0,85,0.00,,,0.00,meteohub,2013-11-30 07:53:00,
2013-11-29 23:58:00,25.7,21.7,30.69,SSE,160,2.0,3.0,85,0.00,,,0.00,meteohub,2013-11-30 07:58:00,